createdAt,value
2022-08-30T00:00:18.582Z,100409.06
2022-08-30T00:02:53.981Z,100403.78
2022-08-30T00:05:27.908Z,100407.59
2022-08-30T00:08:02.220Z,100402.25
2022-08-30T00:10:35.815Z,100404.09
2022-08-30T00:13:09.477Z,100403.31
2022-08-30T00:15:43.934Z,100407.78
2022-08-30T00:18:20.755Z,100413.53
2022-08-30T00:20:58.159Z,100406.63
2022-08-30T00:23:31.394Z,100412.09
2022-08-30T00:26:05.524Z,100406.72
2022-08-30T00:28:39.055Z,100407.19
2022-08-30T00:31:13.528Z,100407.63
2022-08-30T00:33:50.509Z,100408.75
2022-08-30T00:36:24.007Z,100413.63
2022-08-30T00:38:57.182Z,100407.66
2022-08-30T00:41:30.735Z,100405.00
2022-08-30T00:44:04.210Z,100406.38
2022-08-30T00:46:37.815Z,100398.44
2022-08-30T00:49:14.262Z,100407.56
2022-08-30T00:51:47.949Z,100405.91
2022-08-30T00:54:22.088Z,100409.69
2022-08-30T00:57:00.035Z,100413.38
2022-08-30T00:59:34.871Z,100418.00
2022-08-30T01:02:10.015Z,100416.31
2022-08-30T01:04:46.622Z,100414.56
2022-08-30T01:07:20.756Z,100420.94
2022-08-30T01:09:54.455Z,100408.53
2022-08-30T01:12:28.850Z,100408.66
2022-08-30T01:15:02.839Z,100410.59
2022-08-30T01:17:36.923Z,100413.38
2022-08-30T01:20:16.094Z,100404.56
2022-08-30T01:23:05.706Z,100414.28
2022-08-30T01:25:42.519Z,100411.91
2022-08-30T01:28:19.537Z,100415.56
2022-08-30T01:30:54.232Z,100409.31
2022-08-30T01:33:27.900Z,100412.00
2022-08-30T01:36:02.681Z,100421.16
2022-08-30T01:38:41.004Z,100419.38
2022-08-30T01:41:17.481Z,100421.19
2022-08-30T01:43:53.799Z,100417.63
2022-08-30T01:46:30.468Z,100418.59
2022-08-30T01:49:07.454Z,100414.19
2022-08-30T01:51:41.607Z,100414.31
2022-08-30T01:54:16.663Z,100409.13
2022-08-30T01:56:50.652Z,100409.22
2022-08-30T01:59:24.307Z,100404.06
2022-08-30T02:01:57.952Z,100405.00
2022-08-30T02:04:32.152Z,100400.63
2022-08-30T02:07:06.407Z,100398.03
2022-08-30T02:09:41.597Z,100403.53
2022-08-30T02:12:17.123Z,100406.34
2022-08-30T02:14:50.843Z,100414.53
2022-08-30T02:17:27.212Z,100410.22
2022-08-30T02:20:00.949Z,100413.97
2022-08-30T02:22:34.636Z,100417.44
2022-08-30T02:25:20.545Z,100416.34
2022-08-30T02:27:54.856Z,100420.47
2022-08-30T02:30:28.285Z,100424.75
2022-08-30T02:33:02.030Z,100416.13
2022-08-30T02:35:35.729Z,100424.09
2022-08-30T02:38:10.087Z,100417.75
2022-08-30T02:40:45.481Z,100413.88
2022-08-30T02:43:19.252Z,100419.16
2022-08-30T02:45:55.646Z,100425.06
2022-08-30T02:48:29.320Z,100427.31
2022-08-30T02:51:09.591Z,100416.19
2022-08-30T02:53:46.238Z,100424.03
2022-08-30T02:56:21.228Z,100416.72
2022-08-30T02:58:54.867Z,100421.13
2022-08-30T03:01:29.430Z,100427.41
2022-08-30T03:04:03.697Z,100427.50
2022-08-30T03:06:37.910Z,100434.84
2022-08-30T03:09:11.511Z,100431.41
2022-08-30T03:11:49.100Z,100435.19
2022-08-30T03:14:23.119Z,100430.88
2022-08-30T03:16:56.848Z,100444.47
2022-08-30T03:19:30.712Z,100441.91
2022-08-30T03:22:04.778Z,100443.84
2022-08-30T03:24:38.652Z,100450.31
2022-08-30T03:27:13.927Z,100447.84
2022-08-30T03:29:47.550Z,100455.19
2022-08-30T03:32:20.949Z,100442.84
2022-08-30T03:34:54.609Z,100444.63
2022-08-30T03:37:28.765Z,100442.22
2022-08-30T03:40:02.945Z,100439.53
2022-08-30T03:42:38.306Z,100433.50
2022-08-30T03:45:16.953Z,100433.84
2022-08-30T03:47:50.562Z,100436.66
2022-08-30T03:50:23.915Z,100432.31
2022-08-30T03:52:58.128Z,100429.50
2022-08-30T03:55:31.824Z,100441.41
2022-08-30T03:58:07.372Z,100446.03
2022-08-30T04:00:41.262Z,100454.22
2022-08-30T04:03:15.045Z,100452.63
2022-08-30T04:05:49.004Z,100454.22
2022-08-30T04:08:22.910Z,100457.38
2022-08-30T04:10:57.121Z,100458.00
2022-08-30T04:13:32.193Z,100448.19
2022-08-30T04:16:06.411Z,100452.84
2022-08-30T04:18:40.156Z,100457.59
2022-08-30T04:21:14.263Z,100457.03
2022-08-30T04:23:48.333Z,100462.53
2022-08-30T04:26:21.940Z,100458.13
2022-08-30T04:28:57.227Z,100454.66
2022-08-30T04:31:31.670Z,100459.84
2022-08-30T04:34:05.463Z,100468.59
2022-08-30T04:36:39.174Z,100466.44
2022-08-30T04:39:12.853Z,100471.41
2022-08-30T04:41:46.670Z,100471.81
2022-08-30T04:44:21.992Z,100474.09
2022-08-30T04:46:55.599Z,100478.94
2022-08-30T04:49:28.891Z,100476.75
2022-08-30T04:52:02.700Z,100479.66
2022-08-30T04:54:36.297Z,100474.03
2022-08-30T04:57:12.599Z,100484.47
2022-08-30T04:59:47.665Z,100481.03
2022-08-30T05:02:21.915Z,100486.00
2022-08-30T05:05:18.459Z,100482.94
2022-08-30T05:07:51.930Z,100483.38
2022-08-30T05:10:27.530Z,100490.13
2022-08-30T05:13:01.067Z,100496.16
2022-08-30T05:15:35.993Z,100493.34
2022-08-30T05:18:11.394Z,100494.03
2022-08-30T05:20:47.865Z,100505.59
2022-08-30T05:23:21.058Z,100496.34
2022-08-30T05:25:54.702Z,100497.53
2022-08-30T05:28:28.223Z,100501.88
2022-08-30T05:31:02.952Z,100503.50
2022-08-30T05:33:38.997Z,100503.00
2022-08-30T05:36:14.470Z,100510.25
2022-08-30T05:38:48.122Z,100506.44
2022-08-30T05:41:21.952Z,100504.41
2022-08-30T05:43:56.055Z,100501.34
2022-08-30T05:49:11.881Z,100515.66
2022-08-30T05:51:45.574Z,100513.59
2022-08-30T05:54:19.253Z,100515.69
2022-08-30T05:56:52.820Z,100512.75
2022-08-30T05:59:27.572Z,100506.25
2022-08-30T06:05:57.498Z,100516.75
2022-08-30T06:08:31.058Z,100519.09
2022-08-30T06:11:04.357Z,100527.66
2022-08-30T06:13:38.022Z,100525.19
2022-08-30T06:16:13.687Z,100525.56
2022-08-30T06:18:49.207Z,100526.97
2022-08-30T06:21:25.418Z,100526.44
2022-08-30T06:23:59.924Z,100533.97
2022-08-30T06:26:34.214Z,100532.75
2022-08-30T06:29:07.925Z,100525.97
2022-08-30T06:31:41.980Z,100530.78
2022-08-30T06:34:18.061Z,100525.88
2022-08-30T06:36:51.697Z,100529.28
2022-08-30T06:39:25.262Z,100529.88
2022-08-30T06:41:58.857Z,100518.38
2022-08-30T06:44:39.884Z,100523.75
2022-08-30T06:47:19.347Z,100526.88
2022-08-30T06:49:54.352Z,100528.31
2022-08-30T06:52:29.779Z,100524.75
2022-08-30T06:55:08.544Z,100524.84
2022-08-30T06:57:42.626Z,100520.94
2022-08-30T07:00:18.128Z,100529.88
2022-08-30T07:02:52.049Z,100540.59
2022-08-30T07:05:27.934Z,100536.00
2022-08-30T07:08:01.636Z,100538.75
2022-08-30T07:10:35.252Z,100541.38
2022-08-30T07:13:09.208Z,100550.66
2022-08-30T07:15:44.050Z,100544.97
2022-08-30T07:18:35.455Z,100553.97
2022-08-30T07:21:12.381Z,100555.84
2022-08-30T07:23:52.714Z,100551.97
2022-08-30T07:26:30.050Z,100559.06
2022-08-30T07:29:05.702Z,100558.16
2022-08-30T07:31:39.334Z,100561.19
2022-08-30T07:34:12.987Z,100565.59
2022-08-30T07:36:47.973Z,100564.75
2022-08-30T07:39:23.015Z,100564.84
2022-08-30T07:41:56.656Z,100576.09
2022-08-30T07:44:30.283Z,100564.22
2022-08-30T07:47:04.323Z,100572.09
2022-08-30T07:49:39.171Z,100573.09
2022-08-30T07:52:14.439Z,100571.19
2022-08-30T07:54:48.175Z,100570.09
2022-08-30T07:57:26.724Z,100572.22
2022-08-30T08:00:00.356Z,100574.44
2022-08-30T08:02:34.225Z,100582.31
2022-08-30T08:05:10.294Z,100580.22
2022-08-30T08:07:47.817Z,100584.63
2022-08-30T08:10:21.742Z,100581.50
2022-08-30T08:12:55.473Z,100591.09
2022-08-30T08:15:29.314Z,100581.50
2022-08-30T08:18:03.042Z,100580.59
2022-08-30T08:20:36.948Z,100574.94
2022-08-30T08:23:13.928Z,100571.00
2022-08-30T08:25:47.530Z,100570.91
2022-08-30T08:28:23.540Z,100571.88
2022-08-30T08:30:57.292Z,100582.50
2022-08-30T08:33:31.638Z,100581.72
2022-08-30T08:36:08.858Z,100576.53
2022-08-30T08:38:47.369Z,100577.81
2022-08-30T08:41:42.174Z,100572.72
2022-08-30T08:44:34.981Z,100577.78
2022-08-30T08:47:14.732Z,100583.91
2022-08-30T08:49:52.629Z,100591.41
2022-08-30T08:52:48.734Z,100599.44
2022-08-30T08:55:25.972Z,100593.75
2022-08-30T08:58:00.329Z,100595.88
2022-08-30T09:00:34.448Z,100600.72
2022-08-30T09:03:12.491Z,100605.63
2022-08-30T09:05:46.573Z,100598.59
2022-08-30T09:08:21.959Z,100598.31
2022-08-30T09:11:02.476Z,100606.88
2022-08-30T09:13:43.613Z,100604.31
2022-08-30T09:16:49.548Z,100605.63
2022-08-30T09:19:43.301Z,100603.31
2022-08-30T09:22:26.950Z,100602.88
2022-08-30T09:25:02.836Z,100602.69
2022-08-30T09:27:41.778Z,100602.03
2022-08-30T09:30:18.989Z,100607.78
2022-08-30T09:32:54.919Z,100603.91
2022-08-30T09:35:37.011Z,100607.06
2022-08-30T09:38:13.106Z,100610.06
2022-08-30T09:40:50.664Z,100607.06
2022-08-30T09:43:29.105Z,100606.34
2022-08-30T09:46:11.197Z,100607.34
2022-08-30T09:48:50.545Z,100613.66
2022-08-30T09:51:40.975Z,100615.25
2022-08-30T09:54:23.182Z,100622.09
2022-08-30T09:57:17.655Z,100623.50
2022-08-30T10:00:01.118Z,100625.31
2022-08-30T10:02:58.863Z,100628.97
2022-08-30T10:05:41.959Z,100624.47
2022-08-30T10:08:25.285Z,100623.84
2022-08-30T10:11:03.526Z,100630.34
2022-08-30T10:13:52.396Z,100622.88
2022-08-30T10:16:38.321Z,100635.00
2022-08-30T10:19:25.400Z,100636.22
2022-08-30T10:22:03.817Z,100632.94
2022-08-30T10:24:42.261Z,100639.09
2022-08-30T10:27:22.377Z,100636.84
2022-08-30T10:30:02.985Z,100625.91
2022-08-30T10:32:45.852Z,100629.28
2022-08-30T10:35:23.301Z,100636.19
2022-08-30T10:38:04.368Z,100629.78
2022-08-30T10:40:58.362Z,100626.53
2022-08-30T10:43:39.210Z,100623.81
2022-08-30T10:46:21.377Z,100622.06
2022-08-30T10:48:58.062Z,100628.53
2022-08-30T10:51:38.345Z,100627.25
2022-08-30T10:54:18.656Z,100625.13
2022-08-30T10:56:54.290Z,100623.28
2022-08-30T10:59:28.817Z,100622.47
2022-08-30T11:02:21.003Z,100622.94
2022-08-30T11:05:31.767Z,100617.34
2022-08-30T11:08:20.528Z,100617.22
2022-08-30T11:11:07.522Z,100619.09
2022-08-30T11:13:48.028Z,100620.22
2022-08-30T11:16:34.568Z,100619.78
2022-08-30T11:19:19.002Z,100622.78
2022-08-30T11:22:13.167Z,100624.81
2022-08-30T11:25:18.395Z,100620.63
2022-08-30T11:27:54.170Z,100629.06
2022-08-30T11:30:53.121Z,100624.66
2022-08-30T11:33:41.341Z,100619.66
2022-08-30T11:37:09.881Z,100620.53
2022-08-30T11:40:04.176Z,100612.38
2022-08-30T11:45:52.473Z,100615.22
2022-08-30T11:48:55.742Z,100619.47
2022-08-30T11:55:09.618Z,100617.19
2022-08-30T11:57:51.922Z,100618.63
2022-08-30T12:00:35.124Z,100619.56
2022-08-30T12:03:31.854Z,100605.56
2022-08-30T12:06:07.257Z,100611.53
2022-08-30T12:08:59.544Z,100609.47
2022-08-30T12:12:05.273Z,100610.63
2022-08-30T12:14:47.802Z,100611.84
2022-08-30T12:17:47.040Z,100608.31
2022-08-30T12:20:41.310Z,100607.88
2022-08-30T12:23:20.969Z,100605.31
2022-08-30T12:26:11.891Z,100603.00
2022-08-30T12:28:49.762Z,100607.81
2022-08-30T12:31:29.535Z,100604.97
2022-08-30T12:34:04.567Z,100596.81
2022-08-30T12:36:41.570Z,100599.03
2022-08-30T12:39:19.464Z,100594.56
2022-08-30T12:41:54.317Z,100599.44
2022-08-30T12:44:29.765Z,100594.63
2022-08-30T12:47:07.534Z,100590.41
2022-08-30T12:49:42.721Z,100587.97
2022-08-30T12:52:23.679Z,100585.81
2022-08-30T12:55:17.743Z,100589.44
2022-08-30T12:58:03.022Z,100582.47
2022-08-30T13:00:38.485Z,100572.69
2022-08-30T13:03:31.352Z,100567.97
2022-08-30T13:06:07.546Z,100570.03
2022-08-30T13:08:53.538Z,100576.19
2022-08-30T13:11:29.340Z,100570.00
2022-08-30T13:14:23.174Z,100568.13
2022-08-30T13:17:11.614Z,100571.22
2022-08-30T13:19:57.435Z,100564.19
2022-08-30T13:22:33.128Z,100562.50
2022-08-30T13:25:08.918Z,100561.91
2022-08-30T13:27:42.606Z,100558.63
2022-08-30T13:30:17.383Z,100565.59
2022-08-30T13:32:51.149Z,100561.72
2022-08-30T13:35:26.607Z,100564.16
2022-08-30T13:38:03.026Z,100566.47
2022-08-30T13:40:36.698Z,100567.66
2022-08-30T13:43:10.418Z,100563.03
2022-08-30T13:45:44.077Z,100562.50
2022-08-30T13:48:23.679Z,100570.88
2022-08-30T13:51:00.327Z,100566.22
2022-08-30T13:56:31.878Z,100564.72
2022-08-30T13:59:05.520Z,100569.53
2022-08-30T14:04:33.261Z,100572.59
2022-08-30T14:07:13.936Z,100568.38
2022-08-30T14:09:52.112Z,100573.72
2022-08-30T14:15:21.268Z,100563.88
2022-08-30T14:17:55.139Z,100565.47
2022-08-30T14:20:29.645Z,100567.06
2022-08-30T14:23:10.277Z,100572.97
2022-08-30T14:25:44.356Z,100570.81
2022-08-30T14:28:18.479Z,100570.09
2022-08-30T14:30:54.062Z,100563.34
2022-08-30T14:33:27.665Z,100569.22
2022-08-30T14:36:01.489Z,100572.53
2022-08-30T14:38:36.529Z,100574.13
2022-08-30T14:41:11.086Z,100570.25
2022-08-30T14:43:46.851Z,100572.41
2022-08-30T14:46:22.249Z,100566.53
2022-08-30T14:48:56.353Z,100573.38
2022-08-30T14:51:30.671Z,100576.69
2022-08-30T14:54:06.130Z,100569.22
2022-08-30T14:56:41.706Z,100574.97
2022-08-30T14:59:18.810Z,100559.91
2022-08-30T15:01:53.124Z,100565.66
2022-08-30T15:04:27.874Z,100563.19
2022-08-30T15:07:05.087Z,100556.16
2022-08-30T15:09:41.182Z,100564.34
2022-08-30T15:12:19.198Z,100556.31
2022-08-30T15:14:53.508Z,100562.34
2022-08-30T15:17:33.905Z,100562.06
2022-08-30T15:20:10.641Z,100561.50
2022-08-30T15:22:48.276Z,100562.06
2022-08-30T15:25:24.290Z,100552.59
2022-08-30T15:27:58.906Z,100559.34
2022-08-30T15:30:36.328Z,100551.75
2022-08-30T15:33:10.741Z,100552.50
2022-08-30T15:35:45.142Z,100543.16
2022-08-30T15:38:19.113Z,100544.00
2022-08-30T15:41:00.233Z,100542.16
2022-08-30T15:43:36.002Z,100545.03
2022-08-30T15:46:19.707Z,100538.72
2022-08-30T15:48:55.556Z,100544.19
2022-08-30T15:51:30.879Z,100540.88
2022-08-30T15:54:17.497Z,100544.31
2022-08-30T15:56:59.394Z,100539.28
2022-08-30T15:59:33.377Z,100536.88
2022-08-30T16:02:07.085Z,100539.88
2022-08-30T16:04:41.425Z,100532.00
2022-08-30T16:07:15.439Z,100531.41
2022-08-30T16:09:50.024Z,100531.53
2022-08-30T16:12:25.746Z,100528.81
2022-08-30T16:14:59.994Z,100522.53
2022-08-30T16:17:33.762Z,100527.00
2022-08-30T16:20:11.909Z,100524.41
2022-08-30T16:22:46.159Z,100523.66
2022-08-30T16:25:20.946Z,100536.66
2022-08-30T16:27:55.984Z,100526.22
2022-08-30T16:30:29.638Z,100528.06
2022-08-30T16:33:03.551Z,100531.06
2022-08-30T16:35:37.406Z,100532.38
2022-08-30T16:38:12.068Z,100530.94
2022-08-30T16:40:45.703Z,100526.03
2022-08-30T16:43:21.910Z,100530.06
2022-08-30T16:45:57.060Z,100534.06
2022-08-30T16:48:34.908Z,100529.03
2022-08-30T16:51:11.276Z,100524.84
2022-08-30T16:53:46.282Z,100525.44
2022-08-30T16:56:25.132Z,100534.13
2022-08-30T16:59:04.708Z,100531.97
2022-08-30T17:01:42.508Z,100532.25
2022-08-30T17:04:18.362Z,100533.63
2022-08-30T17:06:53.311Z,100538.50
2022-08-30T17:09:27.058Z,100537.06
2022-08-30T17:12:00.573Z,100541.00
2022-08-30T17:14:39.143Z,100533.41
2022-08-30T17:17:14.340Z,100539.38
2022-08-30T17:19:49.813Z,100541.50
2022-08-30T17:22:23.342Z,100541.19
2022-08-30T17:24:59.816Z,100544.16
2022-08-30T17:27:33.968Z,100554.44
2022-08-30T17:30:10.542Z,100552.13
2022-08-30T17:32:44.441Z,100555.97
2022-08-30T17:35:18.169Z,100559.97
2022-08-30T17:37:52.379Z,100561.06
2022-08-30T17:40:26.173Z,100566.91
2022-08-30T17:43:00.023Z,100566.44
2022-08-30T17:45:35.285Z,100568.41
2022-08-30T17:48:08.817Z,100571.41
2022-08-30T17:50:42.478Z,100579.81
2022-08-30T17:53:16.183Z,100586.34
2022-08-30T17:55:53.601Z,100579.44
2022-08-30T17:58:27.371Z,100581.44
2022-08-30T18:01:11.473Z,100587.00
2022-08-30T18:03:45.834Z,100587.38
2022-08-30T18:06:19.852Z,100591.38
2022-08-30T18:08:53.904Z,100595.28
2022-08-30T18:11:28.697Z,100601.81
2022-08-30T18:14:03.621Z,100598.50
2022-08-30T18:16:53.949Z,100605.94
2022-08-30T18:19:29.639Z,100603.34
2022-08-30T18:22:03.618Z,100609.03
2022-08-30T18:24:37.344Z,100610.13
2022-08-30T18:27:11.060Z,100605.84
2022-08-30T18:29:47.160Z,100610.66
2022-08-30T18:32:22.451Z,100606.34
2022-08-30T18:35:12.318Z,100607.31
2022-08-30T18:37:45.968Z,100619.31
2022-08-30T18:40:19.913Z,100606.84
2022-08-30T18:42:56.144Z,100616.09
2022-08-30T18:45:33.715Z,100614.38
2022-08-30T18:48:08.955Z,100610.06
2022-08-30T18:50:44.023Z,100614.75
2022-08-30T18:56:17.644Z,100616.00
2022-08-30T18:58:51.729Z,100622.66
2022-08-30T19:01:25.357Z,100621.91
2022-08-30T19:04:00.838Z,100624.16
2022-08-30T19:06:37.668Z,100626.25
2022-08-30T19:09:12.059Z,100632.91
2022-08-30T19:11:48.024Z,100636.63
2022-08-30T19:14:21.940Z,100633.16
2022-08-30T19:16:57.461Z,100636.25
2022-08-30T19:19:48.784Z,100637.47
2022-08-30T19:22:26.721Z,100638.69
2022-08-30T19:25:03.107Z,100639.94
2022-08-30T19:27:38.531Z,100640.06
2022-08-30T19:30:23.027Z,100644.06
2022-08-30T19:32:59.115Z,100645.19
2022-08-30T19:35:34.476Z,100647.28
2022-08-30T19:38:08.136Z,100647.53
2022-08-30T19:40:41.939Z,100644.19
2022-08-30T19:43:21.060Z,100654.41
2022-08-30T19:45:56.368Z,100654.66
2022-08-30T19:48:32.448Z,100654.78
2022-08-30T19:51:13.966Z,100655.00
2022-08-30T19:53:47.634Z,100651.69
2022-08-30T19:56:21.387Z,100654.75
2022-08-30T19:58:58.029Z,100652.91
2022-08-30T20:01:33.561Z,100655.72
2022-08-30T20:04:07.912Z,100657.72
2022-08-30T20:06:52.642Z,100650.81
2022-08-30T20:09:25.881Z,100650.97
2022-08-30T20:11:59.472Z,100651.06
2022-08-30T20:14:33.118Z,100651.41
2022-08-30T20:17:11.698Z,100642.91
2022-08-30T20:19:46.288Z,100642.25
2022-08-30T20:22:21.427Z,100641.53
2022-08-30T20:24:29.683Z,100617.84
2022-08-30T20:24:55.016Z,100643.25
2022-08-30T20:27:30.182Z,100639.78
2022-08-30T20:30:03.973Z,100647.16
2022-08-30T20:32:44.420Z,100635.59
2022-08-30T20:35:24.006Z,100632.25
2022-08-30T20:38:06.401Z,100632.50
2022-08-30T20:40:44.631Z,100635.47
2022-08-30T20:43:32.839Z,100633.72
2022-08-30T20:46:11.382Z,100631.47
2022-08-30T20:48:50.034Z,100629.00
2022-08-30T20:51:24.125Z,100636.38
2022-08-30T20:54:02.425Z,100631.16
2022-08-30T20:56:36.803Z,100626.97
2022-08-30T20:59:15.355Z,100637.28
2022-08-30T21:01:50.174Z,100631.25
2022-08-30T21:04:26.705Z,100636.88
2022-08-30T21:07:00.833Z,100632.56
2022-08-30T21:09:37.169Z,100632.91
2022-08-30T21:12:16.722Z,100633.28
2022-08-30T21:14:50.394Z,100635.31
2022-08-30T21:17:24.333Z,100643.53
2022-08-30T21:20:01.031Z,100636.53
2022-08-30T21:22:34.673Z,100641.28
2022-08-30T21:25:10.534Z,100631.69
2022-08-30T21:27:44.254Z,100640.88
2022-08-30T21:30:17.981Z,100631.19
2022-08-30T21:32:51.484Z,100633.22
2022-08-30T21:35:41.917Z,100631.69
2022-08-30T21:38:16.218Z,100632.72
2022-08-30T21:40:51.358Z,100638.44
2022-08-30T21:43:25.097Z,100631.44
2022-08-30T21:45:58.705Z,100631.56
2022-08-30T21:48:37.482Z,100631.56
2022-08-30T21:51:13.455Z,100626.16
2022-08-30T21:53:47.214Z,100631.44
2022-08-30T21:56:23.740Z,100623.34
2022-08-30T21:58:58.662Z,100627.84
2022-08-30T22:01:32.638Z,100618.97
2022-08-30T22:04:07.140Z,100624.16
2022-08-30T22:06:42.854Z,100627.75
2022-08-30T22:09:18.584Z,100635.34
2022-08-30T22:11:54.554Z,100632.75
2022-08-30T22:14:29.134Z,100629.31
2022-08-30T22:17:03.720Z,100628.56
2022-08-30T22:19:37.912Z,100630.72
2022-08-30T22:22:13.779Z,100631.03
2022-08-30T22:24:49.610Z,100636.81
2022-08-30T22:27:25.148Z,100641.75
2022-08-30T22:29:59.479Z,100643.78
2022-08-30T22:32:33.606Z,100637.75
2022-08-30T22:35:08.475Z,100643.47
2022-08-30T22:37:42.456Z,100639.25
2022-08-30T22:40:22.415Z,100638.63
2022-08-30T22:42:57.868Z,100644.34
2022-08-30T22:45:31.939Z,100642.63
2022-08-30T22:48:06.098Z,100641.97
2022-08-30T22:50:40.471Z,100643.91
2022-08-30T22:53:14.482Z,100644.03
2022-08-30T22:55:48.575Z,100650.38
2022-08-30T22:58:23.974Z,100644.13
2022-08-30T23:00:57.919Z,100646.94
2022-08-30T23:03:35.877Z,100637.09
2022-08-30T23:06:09.940Z,100643.50
2022-08-30T23:08:43.860Z,100635.59
2022-08-30T23:11:17.696Z,100639.38
2022-08-30T23:13:53.198Z,100638.84
2022-08-30T23:16:31.874Z,100638.09
2022-08-30T23:19:06.540Z,100640.16
2022-08-30T23:21:40.093Z,100641.97
2022-08-30T23:24:30.494Z,100636.88
2022-08-30T23:27:21.170Z,100645.88
2022-08-30T23:30:13.372Z,100637.97
2022-08-30T23:33:04.241Z,100637.31
2022-08-30T23:35:55.556Z,100633.97
2022-08-30T23:38:46.505Z,100637.75
2022-08-30T23:41:37.823Z,100637.97
2022-08-30T23:44:28.994Z,100634.59
2022-08-30T23:47:21.080Z,100634.78
2022-08-30T23:50:12.155Z,100635.00
2022-08-30T23:53:02.860Z,100635.25
2022-08-30T23:55:57.651Z,100641.69
2022-08-30T23:58:48.311Z,100632.06
